createdAt,value
2024-01-30T00:00:24.544Z,51.79
2024-01-30T00:01:24.711Z,52.15
2024-01-30T00:02:24.647Z,52.23
2024-01-30T00:03:24.709Z,54.45
2024-01-30T00:04:24.839Z,52.50
2024-01-30T00:05:24.872Z,51.75
2024-01-30T00:06:24.895Z,53.14
2024-01-30T00:07:25.022Z,51.71
2024-01-30T00:08:25.039Z,52.20
2024-01-30T00:09:25.021Z,51.55
2024-01-30T00:10:25.168Z,52.90
2024-01-30T00:11:25.138Z,53.05
2024-01-30T00:12:25.198Z,50.92
2024-01-30T00:13:25.342Z,53.35
2024-01-30T00:14:25.323Z,52.55
2024-01-30T00:15:25.360Z,53.09
2024-01-30T00:16:25.633Z,51.20
2024-01-30T00:17:25.529Z,53.68
2024-01-30T00:18:25.554Z,50.68
2024-01-30T00:19:25.798Z,52.11
2024-01-30T00:20:25.684Z,52.56
2024-01-30T00:21:25.733Z,53.63
2024-01-30T00:22:25.832Z,52.22
2024-01-30T00:23:25.847Z,52.72
2024-01-30T00:24:25.871Z,52.99
2024-01-30T00:25:25.982Z,53.06
2024-01-30T00:26:25.990Z,52.88
2024-01-30T00:27:26.036Z,51.27
2024-01-30T00:28:26.175Z,54.26
2024-01-30T00:29:26.183Z,53.06
2024-01-30T00:30:26.229Z,52.70
2024-01-30T00:31:26.302Z,52.51
2024-01-30T00:32:26.349Z,53.40
2024-01-30T00:33:26.503Z,51.97
2024-01-30T00:34:26.533Z,52.78
2024-01-30T00:35:26.505Z,53.41
2024-01-30T00:36:26.568Z,54.71
2024-01-30T00:37:26.656Z,53.87
2024-01-30T00:38:26.687Z,52.80
2024-01-30T00:39:26.743Z,51.72
2024-01-30T00:40:26.835Z,54.06
2024-01-30T00:41:26.852Z,54.45
2024-01-30T00:42:26.918Z,54.07
2024-01-30T00:43:26.979Z,53.46
2024-01-30T00:44:27.113Z,54.08
2024-01-30T00:45:27.091Z,51.86
2024-01-30T00:46:27.243Z,51.92
2024-01-30T00:47:27.198Z,50.93
2024-01-30T00:48:27.265Z,52.14
2024-01-30T00:49:27.417Z,53.37
2024-01-30T00:50:27.427Z,53.36
2024-01-30T00:51:27.451Z,53.90
2024-01-30T00:52:27.572Z,52.81
2024-01-30T00:53:27.574Z,52.30
2024-01-30T00:54:27.636Z,51.57
2024-01-30T00:55:27.764Z,53.49
2024-01-30T00:56:27.774Z,51.40
2024-01-30T00:57:27.844Z,52.91
2024-01-30T00:58:28.151Z,52.77
2024-01-30T00:59:27.962Z,52.68
2024-01-30T01:00:28.025Z,50.60
2024-01-30T01:01:28.316Z,52.55
2024-01-30T01:02:28.156Z,53.58
2024-01-30T01:03:28.229Z,52.75
2024-01-30T01:04:28.401Z,52.20
2024-01-30T01:05:28.362Z,52.87
2024-01-30T01:06:28.481Z,54.19
2024-01-30T01:07:28.510Z,52.79
2024-01-30T01:08:28.546Z,51.37
2024-01-30T01:09:28.617Z,51.60
2024-01-30T01:10:28.736Z,50.82
2024-01-30T01:11:28.756Z,52.19
2024-01-30T01:12:28.830Z,52.44
2024-01-30T01:13:28.923Z,53.47
2024-01-30T01:14:28.973Z,52.43
2024-01-30T01:15:30.443Z,52.25
2024-01-30T01:16:29.220Z,50.87
2024-01-30T01:17:29.147Z,52.93
2024-01-30T01:18:29.263Z,52.53
2024-01-30T01:19:29.559Z,52.68
2024-01-30T01:20:29.332Z,52.66
2024-01-30T01:21:29.372Z,51.65
2024-01-30T01:22:29.432Z,53.16
2024-01-30T01:23:29.458Z,52.43
2024-01-30T01:24:29.536Z,51.95
2024-01-30T01:25:29.596Z,51.06
2024-01-30T01:26:29.652Z,54.36
2024-01-30T01:27:29.716Z,52.34
2024-01-30T01:28:29.828Z,53.41
2024-01-30T01:29:29.973Z,54.87
2024-01-30T01:30:29.880Z,53.14
2024-01-30T01:31:30.068Z,54.24
2024-01-30T01:32:30.020Z,52.31
2024-01-30T01:33:30.127Z,52.61
2024-01-30T01:34:31.048Z,51.65
2024-01-30T01:35:30.255Z,52.74
2024-01-30T01:36:30.272Z,53.26
2024-01-30T01:37:30.306Z,52.93
2024-01-30T01:38:30.393Z,52.92
2024-01-30T01:39:30.421Z,52.96
2024-01-30T01:40:30.522Z,52.60
2024-01-30T01:41:30.554Z,52.81
2024-01-30T01:42:30.623Z,51.65
2024-01-30T01:43:30.731Z,53.38
2024-01-30T01:44:30.734Z,52.02
2024-01-30T01:45:30.821Z,51.62
2024-01-30T01:46:30.884Z,54.22
2024-01-30T01:47:30.982Z,50.67
2024-01-30T01:48:31.116Z,53.35
2024-01-30T01:49:31.175Z,52.56
2024-01-30T01:50:31.334Z,53.38
2024-01-30T01:51:31.264Z,51.69
2024-01-30T01:52:31.343Z,50.16
2024-01-30T01:53:31.333Z,54.16
2024-01-30T01:54:31.397Z,51.03
2024-01-30T01:55:31.480Z,53.44
2024-01-30T01:56:31.558Z,51.39
2024-01-30T01:57:31.615Z,53.20
2024-01-30T01:58:31.690Z,51.69
2024-01-30T01:59:31.738Z,52.96
2024-01-30T02:00:31.817Z,52.22
2024-01-30T02:01:31.914Z,50.66
2024-01-30T02:02:32.019Z,52.50
2024-01-30T02:03:32.079Z,52.28
2024-01-30T02:04:32.214Z,52.38
2024-01-30T02:05:32.153Z,50.50
2024-01-30T02:06:32.237Z,52.91
2024-01-30T02:07:32.338Z,51.53
2024-01-30T02:08:32.372Z,53.83
2024-01-30T02:09:32.418Z,53.17
2024-01-30T02:10:32.519Z,53.50
2024-01-30T02:11:32.562Z,53.69
2024-01-30T02:12:32.686Z,50.61
2024-01-30T02:13:32.709Z,50.28
2024-01-30T02:14:32.766Z,52.70
2024-01-30T02:15:32.844Z,52.15
2024-01-30T02:16:32.924Z,52.45
2024-01-30T02:17:33.107Z,51.41
2024-01-30T02:18:33.045Z,54.25
2024-01-30T02:19:33.238Z,56.02
2024-01-30T02:20:33.226Z,56.44
2024-01-30T02:21:38.283Z,53.19
2024-01-30T02:22:33.236Z,53.29
2024-01-30T02:23:33.236Z,53.69
2024-01-30T02:24:33.243Z,54.67
2024-01-30T02:25:33.249Z,55.97
2024-01-30T02:26:43.317Z,55.77
2024-01-30T02:27:33.238Z,53.44
2024-01-30T02:28:33.263Z,53.94
2024-01-30T02:29:33.277Z,54.55
2024-01-30T02:30:33.265Z,56.69
2024-01-30T02:31:33.266Z,57.28
2024-01-30T02:32:33.282Z,54.09
2024-01-30T02:33:33.298Z,57.82
2024-01-30T02:34:33.375Z,56.05
2024-01-30T02:35:33.263Z,57.14
2024-01-30T02:36:33.261Z,56.64
2024-01-30T02:37:33.272Z,58.09
2024-01-30T02:38:33.281Z,55.92
2024-01-30T02:39:33.294Z,57.53
2024-01-30T02:40:33.271Z,55.55
2024-01-30T02:41:43.332Z,55.90
2024-01-30T02:42:33.268Z,56.10
2024-01-30T02:43:33.284Z,56.79
2024-01-30T02:44:33.278Z,57.16
2024-01-30T02:45:33.281Z,57.40
2024-01-30T02:46:33.294Z,59.88
2024-01-30T02:47:33.333Z,59.58
2024-01-30T02:48:33.295Z,60.31
2024-01-30T02:49:33.331Z,60.57
2024-01-30T02:50:33.307Z,59.74
2024-01-30T02:51:45.114Z,61.69
2024-01-30T02:52:33.293Z,61.84
2024-01-30T02:53:33.297Z,62.39
2024-01-30T02:54:33.281Z,62.13
2024-01-30T02:55:33.288Z,63.25
2024-01-30T02:56:33.292Z,63.07
2024-01-30T02:57:33.286Z,62.49
2024-01-30T02:58:33.338Z,61.34
2024-01-30T02:59:33.370Z,61.99
2024-01-30T03:00:33.285Z,62.70
2024-01-30T03:01:33.407Z,62.88
2024-01-30T03:02:33.293Z,60.67
2024-01-30T03:03:33.324Z,61.31
2024-01-30T03:04:33.375Z,59.77
2024-01-30T03:05:33.315Z,61.71
2024-01-30T03:06:33.313Z,61.62
2024-01-30T03:07:33.352Z,62.07
2024-01-30T03:08:33.300Z,59.84
2024-01-30T03:09:33.297Z,59.82
2024-01-30T03:10:33.381Z,60.89
2024-01-30T03:11:33.300Z,59.40
2024-01-30T03:12:33.324Z,60.95
2024-01-30T03:13:33.325Z,61.05
2024-01-30T03:14:33.317Z,58.98
2024-01-30T03:15:33.344Z,60.53
2024-01-30T03:16:33.341Z,59.74
2024-01-30T03:17:33.328Z,60.47
2024-01-30T03:18:33.358Z,60.87
2024-01-30T03:19:33.418Z,61.07
2024-01-30T03:20:33.356Z,59.84
2024-01-30T03:21:33.316Z,61.08
2024-01-30T03:22:33.339Z,60.52
2024-01-30T03:23:33.353Z,62.65
2024-01-30T03:24:33.320Z,60.41
2024-01-30T03:25:33.329Z,58.81
2024-01-30T03:26:33.340Z,60.48
2024-01-30T03:27:33.390Z,60.60
2024-01-30T03:28:33.331Z,59.67
2024-01-30T03:29:33.329Z,59.59
2024-01-30T03:30:33.342Z,59.18
2024-01-30T03:31:33.484Z,58.80
2024-01-30T03:32:33.469Z,60.49
2024-01-30T03:33:33.429Z,59.28
2024-01-30T03:34:33.530Z,57.73
2024-01-30T03:35:33.352Z,59.58
2024-01-30T03:36:33.347Z,57.74
2024-01-30T03:37:33.459Z,59.08
2024-01-30T03:38:33.344Z,57.39
2024-01-30T03:39:33.356Z,58.84
2024-01-30T03:40:33.365Z,60.55
2024-01-30T03:41:33.384Z,59.13
2024-01-30T03:42:33.355Z,61.28
2024-01-30T03:43:33.387Z,61.77
2024-01-30T03:44:33.362Z,57.05
2024-01-30T03:45:33.401Z,61.91
2024-01-30T03:46:33.374Z,61.12
2024-01-30T03:47:33.385Z,56.87
2024-01-30T03:48:33.375Z,60.34
2024-01-30T03:49:33.502Z,57.92
2024-01-30T03:50:33.412Z,61.26
2024-01-30T03:51:33.391Z,60.98
2024-01-30T03:52:33.401Z,59.07
2024-01-30T03:53:33.361Z,58.83
2024-01-30T03:54:33.362Z,59.41
2024-01-30T03:55:33.374Z,59.88
2024-01-30T03:56:33.369Z,59.83
2024-01-30T03:57:33.382Z,57.92
2024-01-30T03:58:33.366Z,60.70
2024-01-30T03:59:33.365Z,60.17
2024-01-30T04:00:34.004Z,62.86
2024-01-30T04:01:33.512Z,60.41
2024-01-30T04:02:33.425Z,61.03
2024-01-30T04:03:33.431Z,57.93
2024-01-30T04:04:33.615Z,59.66
2024-01-30T04:05:33.421Z,61.18
2024-01-30T04:06:33.377Z,59.39
2024-01-30T04:07:33.409Z,60.91
2024-01-30T04:08:33.403Z,59.42
2024-01-30T04:09:33.394Z,61.47
2024-01-30T04:10:33.386Z,60.38
2024-01-30T04:11:33.410Z,59.30
2024-01-30T04:12:33.414Z,61.24
2024-01-30T04:13:33.433Z,61.05
2024-01-30T04:14:33.396Z,59.54
2024-01-30T04:15:33.396Z,61.49
2024-01-30T04:16:33.386Z,59.75
2024-01-30T04:17:33.418Z,61.62
2024-01-30T04:18:33.396Z,62.63
2024-01-30T04:19:33.459Z,59.96
2024-01-30T04:20:33.393Z,58.57
2024-01-30T04:21:33.415Z,61.88
2024-01-30T04:22:33.401Z,58.54
2024-01-30T04:23:33.393Z,61.52
2024-01-30T04:24:33.515Z,59.92
2024-01-30T04:25:33.490Z,60.16
2024-01-30T04:26:33.410Z,60.55
2024-01-30T04:27:33.411Z,58.87
2024-01-30T04:28:33.427Z,60.24
2024-01-30T04:29:33.425Z,60.00
2024-01-30T04:30:33.407Z,59.42
2024-01-30T04:31:38.429Z,60.64
2024-01-30T04:32:33.445Z,60.73
2024-01-30T04:33:33.446Z,60.85
2024-01-30T04:34:33.501Z,60.70
2024-01-30T04:35:33.441Z,60.72
2024-01-30T04:36:33.449Z,61.72
2024-01-30T04:37:40.731Z,50.00
2024-01-30T04:38:40.727Z,50.00
2024-01-30T04:39:40.774Z,50.00
2024-01-30T04:40:40.730Z,50.00
2024-01-30T04:41:40.724Z,50.00
2024-01-30T04:42:40.795Z,52.93
2024-01-30T04:43:40.734Z,54.21
2024-01-30T04:44:40.724Z,52.25
2024-01-30T04:45:40.743Z,53.99
2024-01-30T04:46:40.736Z,55.49
2024-01-30T04:47:40.733Z,51.20
2024-01-30T04:48:40.866Z,49.96
2024-01-30T04:49:40.855Z,54.42
2024-01-30T04:50:40.739Z,50.96
2024-01-30T04:51:40.756Z,54.34
2024-01-30T04:52:40.741Z,51.64
2024-01-30T04:53:40.752Z,53.74
2024-01-30T04:54:40.802Z,51.34
2024-01-30T04:55:40.792Z,52.81
2024-01-30T04:56:40.783Z,52.88
2024-01-30T04:57:40.780Z,53.32
2024-01-30T04:58:40.752Z,50.91
2024-01-30T04:59:40.766Z,54.68
2024-01-30T05:00:40.812Z,52.01
2024-01-30T05:01:40.820Z,52.69
2024-01-30T05:02:40.752Z,55.70
2024-01-30T05:03:40.825Z,52.35
2024-01-30T05:04:40.867Z,50.00
2024-01-30T05:05:40.768Z,54.64
2024-01-30T05:06:40.784Z,54.11
2024-01-30T05:07:40.749Z,54.25
2024-01-30T05:08:40.756Z,53.37
2024-01-30T05:09:40.810Z,53.98
2024-01-30T05:10:40.816Z,55.82
2024-01-30T05:11:40.761Z,51.79
2024-01-30T05:12:40.820Z,54.44
2024-01-30T05:13:40.762Z,54.73
2024-01-30T05:14:40.756Z,52.77
2024-01-30T05:15:40.829Z,55.67
2024-01-30T05:16:40.773Z,53.66
2024-01-30T05:17:40.794Z,54.45
2024-01-30T05:18:40.848Z,54.43
2024-01-30T05:19:40.823Z,52.12
2024-01-30T05:20:40.775Z,54.60
2024-01-30T05:21:40.769Z,53.66
2024-01-30T05:22:40.769Z,54.43
2024-01-30T05:23:40.775Z,52.91
2024-01-30T05:24:40.805Z,53.77
2024-01-30T05:25:40.777Z,53.26
2024-01-30T05:26:42.385Z,54.32
2024-01-30T05:27:40.792Z,52.31
2024-01-30T05:28:40.776Z,54.44
2024-01-30T05:29:40.798Z,54.85
2024-01-30T05:30:40.787Z,53.02
2024-01-30T05:31:40.890Z,53.36
2024-01-30T05:32:40.936Z,52.78
2024-01-30T05:33:40.971Z,51.43
2024-01-30T05:34:40.899Z,56.56
2024-01-30T05:35:40.805Z,53.80
2024-01-30T05:36:40.841Z,56.21
2024-01-30T05:37:40.802Z,55.03
2024-01-30T05:38:40.790Z,54.68
2024-01-30T05:39:40.815Z,54.24
2024-01-30T05:40:40.805Z,53.39
2024-01-30T05:41:40.822Z,53.80
2024-01-30T05:42:40.861Z,55.07
2024-01-30T05:43:40.803Z,52.55
2024-01-30T05:44:40.788Z,54.98
2024-01-30T05:45:40.825Z,54.35
2024-01-30T05:46:40.835Z,54.39
2024-01-30T05:47:40.830Z,52.79
2024-01-30T05:48:40.847Z,53.65
2024-01-30T05:49:40.815Z,54.62
2024-01-30T05:50:40.832Z,50.20
2024-01-30T05:51:40.887Z,55.48
2024-01-30T05:52:40.860Z,53.36
2024-01-30T05:53:40.812Z,55.06
2024-01-30T05:54:40.839Z,55.33
2024-01-30T05:55:40.835Z,53.48
2024-01-30T05:56:40.820Z,52.99
2024-01-30T05:57:40.868Z,52.08
2024-01-30T05:58:40.825Z,53.88
2024-01-30T05:59:42.122Z,51.08
2024-01-30T06:00:40.953Z,51.83
2024-01-30T06:01:40.869Z,53.17
2024-01-30T06:02:40.829Z,51.44
2024-01-30T06:03:40.891Z,50.85
2024-01-30T06:04:40.925Z,54.76
2024-01-30T06:05:40.902Z,55.19
2024-01-30T06:06:40.904Z,55.15
2024-01-30T06:07:41.023Z,54.59
2024-01-30T06:08:40.841Z,55.72
2024-01-30T06:09:40.878Z,51.82
2024-01-30T06:10:40.836Z,55.11
2024-01-30T06:11:40.841Z,50.94
2024-01-30T06:12:40.894Z,53.35
2024-01-30T06:13:40.912Z,55.48
2024-01-30T06:14:42.389Z,55.70
2024-01-30T06:15:41.131Z,56.31
2024-01-30T06:16:41.105Z,52.55
2024-01-30T06:17:41.151Z,54.99
2024-01-30T06:18:41.180Z,55.33
2024-01-30T06:19:41.309Z,55.60
2024-01-30T06:20:41.245Z,51.72
2024-01-30T06:21:41.606Z,51.40
2024-01-30T06:22:41.242Z,56.69
2024-01-30T06:23:41.262Z,56.25
2024-01-30T06:24:41.306Z,55.45
2024-01-30T06:25:41.295Z,54.03
2024-01-30T06:26:41.281Z,57.08
2024-01-30T06:27:41.344Z,66.10
2024-01-30T06:28:41.317Z,77.76
2024-01-30T06:29:41.344Z,103.37
2024-01-30T06:30:41.434Z,113.21
2024-01-30T06:31:41.420Z,116.61
2024-01-30T06:32:41.522Z,113.62
2024-01-30T06:33:41.606Z,116.64
2024-01-30T06:34:41.645Z,116.79
2024-01-30T06:35:43.984Z,117.24
2024-01-30T06:36:41.860Z,112.75
2024-01-30T06:37:41.591Z,102.68
2024-01-30T06:38:41.602Z,97.95
2024-01-30T06:39:41.631Z,85.39
2024-01-30T06:40:41.610Z,77.79
2024-01-30T06:41:41.631Z,71.14
2024-01-30T06:42:41.645Z,67.34
2024-01-30T06:43:41.611Z,59.56
2024-01-30T06:44:41.610Z,53.15
2024-01-30T06:45:41.748Z,71.95
2024-01-30T06:46:42.366Z,82.93
2024-01-30T06:47:41.650Z,82.17
2024-01-30T06:48:41.714Z,82.08
2024-01-30T06:49:41.681Z,80.56
2024-01-30T06:50:41.646Z,82.91
2024-01-30T06:51:41.701Z,82.68
2024-01-30T06:52:41.616Z,86.03
2024-01-30T06:53:41.616Z,83.99
2024-01-30T06:54:41.683Z,85.70
2024-01-30T06:55:41.644Z,89.99
2024-01-30T06:56:41.624Z,86.64
2024-01-30T06:57:41.662Z,90.92
2024-01-30T06:58:41.647Z,93.14
2024-01-30T06:59:41.630Z,95.50
2024-01-30T07:00:41.710Z,99.16
2024-01-30T07:01:41.676Z,99.49
2024-01-30T07:02:41.626Z,102.95
2024-01-30T07:03:41.726Z,106.58
2024-01-30T07:04:45.390Z,110.87
2024-01-30T07:05:42.640Z,111.01
2024-01-30T07:06:41.726Z,111.86
2024-01-30T07:07:41.673Z,113.47
2024-01-30T07:08:41.626Z,116.21
2024-01-30T07:09:41.657Z,121.69
2024-01-30T07:10:41.669Z,122.32
2024-01-30T07:11:41.666Z,123.20
2024-01-30T07:12:41.674Z,123.49
2024-01-30T07:13:41.665Z,126.82
2024-01-30T07:14:41.634Z,126.50
2024-01-30T07:15:41.667Z,128.04
2024-01-30T07:16:41.665Z,128.77
2024-01-30T07:17:41.726Z,128.58
2024-01-30T07:18:41.852Z,128.62
2024-01-30T07:19:41.954Z,130.03
2024-01-30T07:20:41.931Z,129.01
2024-01-30T07:21:42.068Z,133.29
2024-01-30T07:22:42.047Z,130.91
2024-01-30T07:23:42.102Z,131.90
2024-01-30T07:24:42.167Z,131.62
2024-01-30T07:25:42.240Z,132.74
2024-01-30T07:26:42.297Z,131.85
2024-01-30T07:27:42.410Z,133.15
2024-01-30T07:28:42.440Z,132.86
2024-01-30T07:29:42.503Z,132.22
2024-01-30T07:30:42.597Z,131.80
2024-01-30T07:31:42.722Z,133.36
2024-01-30T07:32:42.708Z,134.09
2024-01-30T07:33:42.867Z,133.95
2024-01-30T07:34:53.273Z,134.96
2024-01-30T07:35:43.940Z,135.03
2024-01-30T07:36:42.925Z,134.62
2024-01-30T07:37:42.914Z,135.54
2024-01-30T07:38:42.826Z,136.05
2024-01-30T07:39:42.887Z,136.07
2024-01-30T07:40:42.844Z,135.55
2024-01-30T07:41:42.833Z,134.28
2024-01-30T07:42:42.870Z,135.23
2024-01-30T07:43:42.845Z,135.40
2024-01-30T07:44:42.828Z,136.17
2024-01-30T07:45:42.919Z,136.00
2024-01-30T07:46:42.898Z,136.95
2024-01-30T07:47:42.967Z,134.52
2024-01-30T07:48:43.047Z,134.27
2024-01-30T07:49:43.193Z,138.71
2024-01-30T07:50:43.197Z,133.98
2024-01-30T07:51:43.245Z,133.36
2024-01-30T07:52:43.181Z,130.25
2024-01-30T07:53:43.246Z,127.59
2024-01-30T07:54:43.275Z,126.17
2024-01-30T07:55:43.290Z,128.04
2024-01-30T07:56:43.284Z,120.90
2024-01-30T07:57:43.336Z,118.07
2024-01-30T07:58:43.312Z,120.94
2024-01-30T07:59:43.287Z,127.95
2024-01-30T08:00:43.411Z,138.66
2024-01-30T08:01:43.320Z,154.09
2024-01-30T08:02:43.293Z,166.40
2024-01-30T08:03:43.334Z,177.30
2024-01-30T08:04:43.551Z,186.48
2024-01-30T08:05:43.390Z,190.71
2024-01-30T08:06:44.522Z,191.88
2024-01-30T08:07:43.365Z,191.93
2024-01-30T08:08:43.303Z,189.77
2024-01-30T08:09:43.399Z,192.61
2024-01-30T08:10:43.313Z,192.66
2024-01-30T08:11:43.362Z,190.14
2024-01-30T08:12:43.440Z,187.14
2024-01-30T08:13:43.501Z,188.04
2024-01-30T08:14:43.522Z,186.21
2024-01-30T08:15:43.587Z,188.42
2024-01-30T08:16:43.557Z,187.04
2024-01-30T08:17:43.574Z,188.07
2024-01-30T08:18:43.677Z,187.57
2024-01-30T08:19:43.757Z,189.47
2024-01-30T08:20:43.586Z,189.27
2024-01-30T08:21:43.662Z,187.13
2024-01-30T08:22:43.629Z,188.16
2024-01-30T08:23:43.672Z,189.24
2024-01-30T08:24:43.709Z,189.77
2024-01-30T08:25:43.756Z,189.34
2024-01-30T08:26:43.755Z,194.04
2024-01-30T08:27:43.907Z,192.91
2024-01-30T08:28:43.923Z,191.05
2024-01-30T08:29:43.850Z,191.19
2024-01-30T08:30:43.884Z,191.75
2024-01-30T08:31:43.856Z,192.41
2024-01-30T08:32:43.872Z,193.84
2024-01-30T08:33:45.130Z,197.52
2024-01-30T08:34:43.951Z,195.71
2024-01-30T08:35:43.856Z,195.44
2024-01-30T08:36:43.900Z,197.14
2024-01-30T08:37:43.878Z,196.88
2024-01-30T08:38:43.863Z,194.68
2024-01-30T08:39:43.902Z,194.78
2024-01-30T08:40:43.981Z,197.83
2024-01-30T08:41:44.037Z,196.08
2024-01-30T08:42:44.090Z,195.52
2024-01-30T08:43:44.127Z,196.98
2024-01-30T08:44:44.175Z,197.51
2024-01-30T08:45:44.233Z,194.97
2024-01-30T08:46:44.279Z,195.48
2024-01-30T08:47:44.429Z,193.68
2024-01-30T08:48:44.518Z,192.61
2024-01-30T08:49:44.377Z,190.43
2024-01-30T08:50:44.369Z,193.00
2024-01-30T08:51:44.490Z,193.20
2024-01-30T08:52:47.386Z,192.31
2024-01-30T08:53:44.507Z,196.26
2024-01-30T08:54:44.543Z,196.68
2024-01-30T08:55:44.507Z,199.02
2024-01-30T08:56:44.492Z,199.02
2024-01-30T08:57:44.496Z,198.23
2024-01-30T08:58:44.499Z,200.00
2024-01-30T08:59:44.503Z,199.61
2024-01-30T09:00:44.574Z,199.06
2024-01-30T09:01:52.393Z,199.66
2024-01-30T09:02:45.628Z,199.72
2024-01-30T09:03:44.629Z,200.17
2024-01-30T09:04:44.774Z,199.46
2024-01-30T09:05:44.504Z,201.57
2024-01-30T09:06:44.606Z,200.53
2024-01-30T09:07:44.709Z,195.96
2024-01-30T09:08:44.525Z,196.40
2024-01-30T09:09:44.565Z,198.96
2024-01-30T09:10:44.635Z,198.81
2024-01-30T09:11:44.544Z,195.97
2024-01-30T09:12:44.575Z,197.01
2024-01-30T09:13:44.550Z,197.37
2024-01-30T09:14:44.572Z,199.27
2024-01-30T09:15:44.572Z,199.04
2024-01-30T09:16:44.536Z,196.46
2024-01-30T09:17:44.555Z,194.96
2024-01-30T09:18:44.626Z,197.16
2024-01-30T09:19:44.699Z,196.24
2024-01-30T09:20:44.560Z,197.39
2024-01-30T09:21:44.606Z,195.33
2024-01-30T09:22:44.645Z,195.77
2024-01-30T09:23:44.675Z,195.02
2024-01-30T09:24:44.780Z,195.38
2024-01-30T09:25:44.775Z,196.04
2024-01-30T09:26:44.828Z,195.95
2024-01-30T09:27:44.871Z,197.64
2024-01-30T09:28:44.898Z,194.99
2024-01-30T09:29:44.938Z,195.48
2024-01-30T09:30:45.008Z,193.90
2024-01-30T09:31:45.074Z,193.86
2024-01-30T09:32:45.113Z,194.14
2024-01-30T09:33:45.209Z,194.70
2024-01-30T09:34:45.233Z,194.16
2024-01-30T09:35:45.195Z,194.03
2024-01-30T09:36:45.278Z,194.19
2024-01-30T09:37:45.373Z,192.25
2024-01-30T09:38:45.358Z,193.29
2024-01-30T09:39:45.421Z,193.43
2024-01-30T09:40:45.481Z,191.09
2024-01-30T09:41:45.536Z,192.21
2024-01-30T09:42:45.601Z,191.70
2024-01-30T09:43:45.706Z,188.53
2024-01-30T09:44:45.697Z,188.11
2024-01-30T09:45:45.868Z,188.84
2024-01-30T09:46:45.804Z,187.20
2024-01-30T09:47:46.056Z,188.09
2024-01-30T09:48:45.964Z,187.61
2024-01-30T09:49:46.023Z,187.98
2024-01-30T09:50:46.047Z,188.31
2024-01-30T09:51:46.089Z,188.08
2024-01-30T09:52:46.081Z,188.32
2024-01-30T09:53:46.214Z,188.17
2024-01-30T09:54:46.175Z,190.26
2024-01-30T09:55:46.181Z,191.64
2024-01-30T09:56:46.199Z,195.78
2024-01-30T09:57:46.269Z,197.58
2024-01-30T09:58:46.244Z,197.84
2024-01-30T09:59:46.273Z,199.52
2024-01-30T10:00:46.351Z,198.01
2024-01-30T10:01:46.560Z,198.05
2024-01-30T10:02:46.326Z,198.01
2024-01-30T10:03:46.374Z,199.94
2024-01-30T10:04:46.534Z,198.30
2024-01-30T10:05:46.362Z,198.82
2024-01-30T10:06:46.443Z,197.77
2024-01-30T10:07:46.550Z,197.93
2024-01-30T10:08:46.443Z,200.00
2024-01-30T10:09:46.484Z,198.15
2024-01-30T10:10:46.485Z,195.46
2024-01-30T10:11:46.525Z,195.68
2024-01-30T10:12:46.551Z,198.05
2024-01-30T10:13:46.558Z,198.15
2024-01-30T10:14:46.595Z,194.01
2024-01-30T10:15:46.671Z,197.98
2024-01-30T10:16:46.660Z,196.48
2024-01-30T10:17:46.715Z,196.79
2024-01-30T10:18:46.818Z,197.55
2024-01-30T10:19:46.815Z,198.64
2024-01-30T10:20:46.727Z,199.70
2024-01-30T10:21:46.804Z,196.74
2024-01-30T10:22:46.785Z,198.62
2024-01-30T10:23:46.800Z,198.66
2024-01-30T10:24:46.852Z,199.52
2024-01-30T10:25:46.869Z,199.10
2024-01-30T10:26:46.863Z,196.61
2024-01-30T10:27:46.919Z,199.13
2024-01-30T10:28:46.880Z,197.81
2024-01-30T10:29:46.884Z,197.38
2024-01-30T10:30:46.930Z,196.16
2024-01-30T10:31:46.983Z,198.80
2024-01-30T10:32:47.026Z,197.81
2024-01-30T10:33:47.193Z,196.20
2024-01-30T10:34:47.000Z,197.98
2024-01-30T10:35:46.989Z,195.52
2024-01-30T10:36:47.075Z,198.56
2024-01-30T10:37:46.969Z,195.75
2024-01-30T10:38:46.985Z,196.33
2024-01-30T10:39:47.234Z,195.93
2024-01-30T10:40:46.993Z,195.49
2024-01-30T10:41:47.003Z,194.84
2024-01-30T10:42:47.126Z,196.05
2024-01-30T10:43:47.076Z,195.45
2024-01-30T10:44:47.042Z,196.50
2024-01-30T10:45:47.064Z,195.31
2024-01-30T10:46:47.055Z,196.48
2024-01-30T10:47:47.106Z,195.66
2024-01-30T10:48:47.164Z,193.97
2024-01-30T10:49:47.151Z,194.02
2024-01-30T10:50:51.228Z,193.40
2024-01-30T10:51:48.111Z,194.09
2024-01-30T10:52:47.091Z,193.34
2024-01-30T10:53:47.109Z,193.37
2024-01-30T10:54:47.126Z,195.42
2024-01-30T10:55:47.089Z,197.87
2024-01-30T10:56:47.132Z,198.93
2024-01-30T10:57:47.144Z,200.00
2024-01-30T10:58:47.105Z,200.00
2024-01-30T10:59:47.096Z,198.77
2024-01-30T11:00:47.171Z,199.02
2024-01-30T11:01:47.220Z,195.30
2024-01-30T11:02:47.213Z,193.56
2024-01-30T11:03:47.312Z,190.81
2024-01-30T11:04:47.439Z,191.69
2024-01-30T11:05:47.399Z,191.59
2024-01-30T11:06:47.554Z,190.19
2024-01-30T11:07:47.626Z,190.03
2024-01-30T11:08:47.562Z,189.14
2024-01-30T11:09:47.608Z,185.47
2024-01-30T11:10:48.691Z,185.04
2024-01-30T11:11:47.708Z,180.48
2024-01-30T11:12:47.986Z,182.57
2024-01-30T11:13:47.838Z,180.27
2024-01-30T11:14:47.881Z,179.02
2024-01-30T11:15:47.911Z,151.34
2024-01-30T11:16:47.899Z,150.10
2024-01-30T11:17:47.954Z,161.53
2024-01-30T11:18:48.023Z,163.08
2024-01-30T11:19:48.054Z,164.14
2024-01-30T11:20:47.920Z,162.88
2024-01-30T11:21:47.956Z,160.36
2024-01-30T11:22:48.080Z,160.88
2024-01-30T11:23:48.085Z,159.67
2024-01-30T11:24:48.162Z,158.77
2024-01-30T11:25:48.214Z,159.06
2024-01-30T11:26:48.295Z,158.07
2024-01-30T11:27:48.472Z,158.21
2024-01-30T11:28:48.416Z,155.04
2024-01-30T11:29:48.461Z,154.60
2024-01-30T11:30:48.620Z,154.13
2024-01-30T11:31:48.570Z,153.49
2024-01-30T11:32:48.702Z,152.86
2024-01-30T11:33:48.780Z,152.91
2024-01-30T11:34:48.800Z,150.50
2024-01-30T11:35:48.794Z,151.18
2024-01-30T11:36:48.839Z,151.50
2024-01-30T11:37:48.888Z,151.33
2024-01-30T11:38:48.920Z,149.92
2024-01-30T11:39:49.010Z,147.90
2024-01-30T11:40:49.090Z,147.54
2024-01-30T11:41:49.023Z,147.17
2024-01-30T11:42:49.123Z,147.93
2024-01-30T11:43:49.124Z,147.72
2024-01-30T11:44:50.180Z,149.55
2024-01-30T11:45:49.265Z,147.80
2024-01-30T11:46:49.279Z,144.71
2024-01-30T11:47:49.396Z,143.74
2024-01-30T11:48:49.455Z,144.57
2024-01-30T11:49:49.527Z,144.49
2024-01-30T11:50:49.513Z,139.97
2024-01-30T11:51:49.626Z,139.50
2024-01-30T11:52:49.634Z,140.87
2024-01-30T11:53:49.672Z,139.46
2024-01-30T11:54:49.776Z,139.64
2024-01-30T11:55:49.804Z,139.84
2024-01-30T11:56:49.866Z,140.38
2024-01-30T11:57:49.986Z,138.66
2024-01-30T11:58:50.010Z,137.63
2024-01-30T11:59:50.070Z,135.48
2024-01-30T12:00:50.195Z,135.66
2024-01-30T12:01:50.323Z,133.87
2024-01-30T12:02:50.291Z,135.30
2024-01-30T12:03:50.383Z,134.73
2024-01-30T12:04:50.433Z,133.03
2024-01-30T12:05:50.516Z,131.61
2024-01-30T12:06:50.738Z,131.07
2024-01-30T12:07:50.762Z,128.09
2024-01-30T12:08:50.692Z,130.66
2024-01-30T12:09:50.785Z,129.46
2024-01-30T12:10:50.808Z,131.65
2024-01-30T12:11:50.861Z,127.84
2024-01-30T12:12:51.012Z,124.22
2024-01-30T12:13:50.959Z,127.29
2024-01-30T12:14:51.024Z,125.28
2024-01-30T12:15:51.135Z,126.36
2024-01-30T12:16:51.137Z,125.14
2024-01-30T12:17:51.255Z,122.67
2024-01-30T12:18:53.192Z,122.20
2024-01-30T12:19:51.324Z,124.61
2024-01-30T12:20:51.234Z,122.76
2024-01-30T12:21:51.234Z,119.53
2024-01-30T12:22:51.324Z,121.29
2024-01-30T12:23:51.241Z,121.04
2024-01-30T12:24:51.279Z,119.40
2024-01-30T12:25:51.254Z,119.13
2024-01-30T12:26:51.265Z,116.26
2024-01-30T12:27:51.434Z,118.12
2024-01-30T12:28:51.289Z,118.00
2024-01-30T12:29:51.253Z,118.62
2024-01-30T12:30:51.336Z,117.24
2024-01-30T12:31:51.254Z,116.45
2024-01-30T12:32:51.360Z,114.93
2024-01-30T12:33:51.353Z,113.90
2024-01-30T12:34:57.329Z,113.29
2024-01-30T12:35:58.696Z,113.36
2024-01-30T12:36:52.320Z,113.41
2024-01-30T12:37:51.336Z,113.93
2024-01-30T12:38:51.285Z,113.89
2024-01-30T12:39:51.272Z,114.29
2024-01-30T12:40:51.303Z,114.71
2024-01-30T12:41:51.274Z,111.17